Mineral Wells, TX

6:01 PM CDT on September 22, 2014 (GMT -0500)
Western II, Mineral Wells | Change Station
CLOSE
Current Station
Personal Weather Station
Location: Mineral Wells, TX
Elevation: 1040 ft
Nearby Weather Stations

Elev 1040 ft 32.82 °N, 98.10 °W | Updated 4 minutes ago

Clear
Clear
86.7 °F
Feels Like 85 °F
N
3.2
Wind Variable Wind from SE

Today
High -- | Low -- °F
--% Chance of Precip.
Yesterday
High -- | Low -- °F
Precip. -- in
7:20 AM 7:29 PM
Waning Crescent, 2% visible
Pressure 30.06 in
Visibility 10.0 miles
Clouds Clear
Heat Index 85 °F
Dew Point 56 °F
Humidity 36%
Rainfall 0.00 in
Snow Depth Not available.
UV 1 out of 12
Pollen 10.90 out of 12
Air Quality Not available.
Flu Activity Not available.
METAR KMWL 222253Z AUTO 05010KT 10SM CLR 31/10 A3009 RMK AO2 SLP177 T03110100

More Conditions Fewer Conditions

Pressure 30.06 in
Visibility 10.0 miles
Clouds Clear
Heat Index 85 °F
Dew Point 56 °F
Humidity 36%
Rainfall 0.00 in
Snow Depth Not available.
UV 1 out of 12
Pollen 10.90 out of 12
Air Quality Not available.
Flu Activity Not available.
METAR KMWL 222253Z AUTO 05010KT 10SM CLR 31/10 A3009 RMK AO2 SLP177 T03110100

More Conditions Fewer Conditions

Nowcast | as of 4:40 PM CDT on September 22, 2014

A few showers will continue from near Goldthwaite southeast to Temple over the next hour. Brief moderate rain will be possible with these. Elsewhere...skies will be mostly sunny with temperatures in the 80s and northeast winds.

×

10-Day Weather Forecast

Almanac

Astronomy

Sep. 22, 2014 Rise Set
Actual Time 7:20 AM CDT 7:29 PM CDT
Civil Twilight 6:55 AM CDT 7:53 PM CDT
Nautical Twilight 6:27 AM CDT 8:22 PM CDT
Astronomical Twilight 5:58 AM CDT 8:51 PM CDT
Moon 5:53 AM CDT 6:35 PM CDT
Length of Visible Light 12h 57m
Length of Day
12h 08m
Tomorrow will be 2m 1s shorter.
Waning Crescent, 2% of the Moon is Illuminated
Today
Waning Crescent
Sep 24
New
Oct 1
First Quarter
Oct 8
Full
Oct 15
Last Quarter

Today's Extremes

State Highs State Lows

Community

WunderPhotos

Upload Photos

1,755,548 photos uploaded!

Nearby

Snow Depth

Station Depth Elevation
No new snow has been reported.

Earthquake Activity

City Distance Mag. Time & Date
Bray, Oklahoma 125 miles 3.6 2:28 PM CDT
2014-09-22
Minimum magnitude displayed is 2.5.

Coastal Water Temperatures

Place Temperature
No Stations Reporting

Nearby Weather Stations